createdAt,value
2023-05-12T00:00:58.357Z,85
2023-05-12T00:00:58.869Z,85
2023-05-12T00:02:06.556Z,85
2023-05-12T00:03:13.214Z,86
2023-05-12T00:04:20.219Z,85
2023-05-12T00:05:26.832Z,86
2023-05-12T00:06:33.884Z,85
2023-05-12T00:07:40.924Z,86
2023-05-12T00:08:48.102Z,86
2023-05-12T00:09:55.165Z,86
2023-05-12T00:11:01.794Z,86
2023-05-12T00:12:08.948Z,86
2023-05-12T00:13:16.044Z,86
2023-05-12T00:14:23.086Z,86
2023-05-12T00:15:30.224Z,86
2023-05-12T00:17:44.049Z,86
2023-05-12T00:18:51.074Z,86
2023-05-12T00:19:58.095Z,86
2023-05-12T00:21:05.176Z,86
2023-05-12T00:22:11.765Z,86
2023-05-12T00:23:18.946Z,86
2023-05-12T00:24:26.027Z,86
2023-05-12T00:25:33.090Z,86
2023-05-12T00:26:40.229Z,86
2023-05-12T00:27:46.784Z,86
2023-05-12T00:28:53.873Z,86
2023-05-12T00:30:00.999Z,86
2023-05-12T00:31:08.188Z,86
2023-05-12T00:32:15.217Z,86
2023-05-12T00:33:21.774Z,86
2023-05-12T00:34:28.943Z,86
2023-05-12T00:35:36.037Z,86
2023-05-12T00:36:43.095Z,86
2023-05-12T00:37:49.699Z,86
2023-05-12T00:38:56.927Z,86
2023-05-12T00:40:03.883Z,86
2023-05-12T00:41:11.007Z,86
2023-05-12T00:42:18.161Z,86
2023-05-12T00:43:25.262Z,86
2023-05-12T00:44:31.780Z,86
2023-05-12T00:45:38.986Z,86
2023-05-12T00:47:53.167Z,86
2023-05-12T00:48:59.752Z,86
2023-05-12T00:50:06.864Z,86
2023-05-12T00:51:13.920Z,86
2023-05-12T00:52:21.066Z,86
2023-05-12T00:53:35.112Z,86
2023-05-12T00:54:35.367Z,86
2023-05-12T00:55:41.821Z,86
2023-05-12T00:56:48.991Z,86
2023-05-12T00:59:03.171Z,86
2023-05-12T01:00:09.782Z,86
2023-05-12T01:01:16.894Z,86
2023-05-12T01:02:24.026Z,86
2023-05-12T01:03:31.167Z,86
2023-05-12T01:04:38.161Z,86
2023-05-12T01:05:45.785Z,86
2023-05-12T01:06:51.823Z,86
2023-05-12T01:07:58.973Z,86
2023-05-12T01:09:06.093Z,86
2023-05-12T01:10:13.127Z,86
2023-05-12T01:11:19.749Z,86
2023-05-12T01:12:26.870Z,86
2023-05-12T01:13:33.945Z,86
2023-05-12T01:14:41.033Z,86
2023-05-12T01:15:48.256Z,86
2023-05-12T01:16:54.819Z,86
2023-05-12T01:18:01.930Z,86
2023-05-12T01:19:09.008Z,86
2023-05-12T01:20:16.033Z,86
2023-05-12T01:21:23.187Z,86
2023-05-12T01:22:29.798Z,86
2023-05-12T01:23:36.900Z,86
2023-05-12T01:24:44.062Z,86
2023-05-12T01:25:51.110Z,86
2023-05-12T01:26:58.223Z,86
2023-05-12T01:28:04.811Z,86
2023-05-12T01:29:11.860Z,86
2023-05-12T01:30:19.352Z,86
2023-05-12T01:31:26.266Z,86
2023-05-12T01:32:33.182Z,86
2023-05-12T01:33:39.810Z,86
2023-05-12T01:34:46.844Z,86
2023-05-12T01:35:53.968Z,86
2023-05-12T01:37:01.086Z,86
2023-05-12T01:38:08.225Z,86
2023-05-12T01:40:22.091Z,86
2023-05-12T01:41:29.019Z,86
2023-05-12T01:42:36.123Z,86
2023-05-12T01:43:42.762Z,86
2023-05-12T01:45:56.880Z,86
2023-05-12T01:47:03.984Z,86
2023-05-12T01:48:11.078Z,86
2023-05-12T01:49:17.727Z,86
2023-05-12T01:50:24.806Z,86
2023-05-12T01:51:31.925Z,86
2023-05-12T01:52:39.035Z,86
2023-05-12T01:53:46.114Z,86
2023-05-12T01:54:52.716Z,86
2023-05-12T01:55:59.836Z,86
2023-05-12T01:57:06.968Z,86
2023-05-12T01:58:14.016Z,86
2023-05-12T01:59:21.234Z,86
2023-05-12T02:00:27.683Z,86
2023-05-12T02:01:34.813Z,86
2023-05-12T02:02:43.179Z,86
2023-05-12T02:03:49.096Z,86
2023-05-12T02:04:56.156Z,86
2023-05-12T02:06:02.716Z,86
2023-05-12T02:07:09.891Z,86
2023-05-12T02:08:16.401Z,86
2023-05-12T02:08:16.991Z,86
2023-05-12T02:09:23.489Z,86
2023-05-12T02:10:30.596Z,86
2023-05-12T02:17:12.778Z,86
2023-05-12T02:18:19.998Z,86
2023-05-12T02:19:27.002Z,86
2023-05-12T02:21:41.162Z,86
2023-05-12T02:22:47.731Z,86
2023-05-12T02:23:54.936Z,86
2023-05-12T02:30:37.032Z,86
2023-05-12T02:31:44.084Z,86
2023-05-12T02:32:51.193Z,86
2023-05-12T02:33:57.764Z,86
2023-05-12T02:33:57.811Z,86
2023-05-12T02:35:04.853Z,86
2023-05-12T02:36:11.396Z,86
2023-05-12T02:37:18.545Z,86
2023-05-12T02:38:25.658Z,86
2023-05-12T02:40:39.858Z,86
2023-05-12T02:41:46.980Z,86
2023-05-12T02:42:54.040Z,86
2023-05-12T02:44:00.798Z,86
2023-05-12T02:45:07.792Z,86
2023-05-12T02:46:14.930Z,86
2023-05-12T02:47:21.434Z,86
2023-05-12T02:48:29.097Z,86
2023-05-12T02:49:36.208Z,86
2023-05-12T02:50:42.750Z,86
2023-05-12T02:51:49.911Z,86
2023-05-12T02:52:56.964Z,86
2023-05-12T02:54:04.180Z,86
2023-05-12T02:55:11.184Z,86
2023-05-12T02:56:17.790Z,86
2023-05-12T02:57:24.900Z,86
2023-05-12T02:58:31.979Z,86
2023-05-12T02:59:39.140Z,86
2023-05-12T03:02:59.991Z,86
2023-05-12T03:04:07.012Z,86
2023-05-12T03:05:14.136Z,86
2023-05-12T03:06:20.675Z,86
2023-05-12T03:07:27.797Z,86
2023-05-12T03:08:34.895Z,86
2023-05-12T03:09:42.017Z,86
2023-05-12T03:10:48.653Z,86
2023-05-12T03:10:49.112Z,86
2023-05-12T03:11:55.713Z,86
2023-05-12T03:13:03.292Z,86
2023-05-12T03:14:09.901Z,86
2023-05-12T03:15:17.069Z,86
2023-05-12T03:16:24.201Z,86
2023-05-12T03:17:30.718Z,86
2023-05-12T03:18:40.722Z,86
2023-05-12T03:19:44.942Z,86
2023-05-12T03:20:51.502Z,86
2023-05-12T03:23:05.813Z,86
2023-05-12T03:24:12.819Z,86
2023-05-12T03:25:19.942Z,86
2023-05-12T03:26:27.050Z,86
2023-05-12T03:27:34.138Z,86
2023-05-12T03:28:40.768Z,86
2023-05-12T03:29:47.850Z,86
2023-05-12T03:30:55.103Z,86
2023-05-12T03:32:02.059Z,86
2023-05-12T03:33:09.170Z,86
2023-05-12T03:34:15.740Z,86
2023-05-12T03:35:22.841Z,86
2023-05-12T03:37:37.108Z,86
2023-05-12T03:38:44.126Z,86
2023-05-12T03:39:50.745Z,86
2023-05-12T03:40:57.880Z,86
2023-05-12T03:42:04.958Z,86
2023-05-12T03:44:19.213Z,86
2023-05-12T03:45:25.791Z,86
2023-05-12T03:46:32.975Z,86
2023-05-12T03:47:40.056Z,86
2023-05-12T03:48:47.093Z,86
2023-05-12T03:49:53.639Z,86
2023-05-12T03:49:54.164Z,86
2023-05-12T03:51:00.714Z,86
2023-05-12T03:52:07.896Z,86
2023-05-12T03:53:15.001Z,86
2023-05-12T03:54:22.120Z,86
2023-05-12T03:55:29.198Z,86
2023-05-12T03:56:35.758Z,86
2023-05-12T03:57:42.884Z,86
2023-05-12T03:58:49.983Z,86
2023-05-12T03:59:57.070Z,86
2023-05-12T04:01:03.654Z,86
2023-05-12T04:02:10.778Z,86
2023-05-12T04:03:18.039Z,87
2023-05-12T04:04:25.050Z,86
2023-05-12T04:05:32.059Z,87
2023-05-12T04:06:39.184Z,87
2023-05-12T04:07:45.766Z,87
2023-05-12T04:08:52.860Z,87
2023-05-12T04:09:59.987Z,87
2023-05-12T04:11:07.130Z,87
2023-05-12T04:12:13.641Z,87
2023-05-12T04:13:20.766Z,87
2023-05-12T04:14:39.086Z,87
2023-05-12T04:15:35.017Z,87
2023-05-12T04:16:42.634Z,87
2023-05-12T04:17:49.267Z,87
2023-05-12T04:18:55.922Z,87
2023-05-12T04:20:02.854Z,87
2023-05-12T04:21:10.020Z,87
2023-05-12T04:22:17.132Z,87
2023-05-12T04:23:24.174Z,87
2023-05-12T04:25:37.903Z,87
2023-05-12T04:26:45.029Z,87
2023-05-12T04:27:52.152Z,87
2023-05-12T04:28:58.797Z,87
2023-05-12T04:30:05.830Z,87
2023-05-12T04:31:12.887Z,87
2023-05-12T04:32:20.119Z,87
2023-05-12T04:33:27.121Z,87
2023-05-12T04:34:33.697Z,87
2023-05-12T04:35:40.767Z,87
2023-05-12T04:36:47.924Z,87
2023-05-12T04:37:55.028Z,87
2023-05-12T04:39:01.566Z,87
2023-05-12T04:40:08.739Z,87
2023-05-12T04:42:22.903Z,87
2023-05-12T05:25:55.960Z,87
2023-05-12T05:28:09.561Z,87
2023-05-12T05:29:17.201Z,87
2023-05-12T05:30:23.748Z,87
2023-05-12T05:31:30.937Z,87
2023-05-12T05:32:38.090Z,87
2023-05-12T05:33:45.121Z,87
2023-05-12T05:34:52.171Z,87
2023-05-12T05:35:58.800Z,87
2023-05-12T05:37:05.949Z,87
2023-05-12T05:38:13.077Z,87
2023-05-12T05:39:20.140Z,87
2023-05-12T05:40:27.203Z,87
2023-05-12T05:41:33.793Z,87
2023-05-12T05:42:40.913Z,87
2023-05-12T05:43:48.027Z,87
2023-05-12T05:44:55.124Z,87
2023-05-12T05:46:01.708Z,87
2023-05-12T05:47:08.924Z,87
2023-05-12T05:48:15.921Z,87
2023-05-12T05:49:22.990Z,87
2023-05-12T05:50:29.620Z,87
2023-05-12T05:51:37.231Z,87
2023-05-12T05:52:44.373Z,87
2023-05-12T05:53:50.922Z,87
2023-05-12T05:54:57.525Z,87
2023-05-12T05:56:05.108Z,87
2023-05-12T05:57:11.708Z,87
2023-05-12T05:58:18.816Z,87
2023-05-12T05:59:25.936Z,87
2023-05-12T06:00:33.007Z,87
2023-05-12T06:01:40.152Z,87
2023-05-12T06:02:47.064Z,87
2023-05-12T06:03:53.873Z,86
2023-05-12T06:06:08.096Z,86
2023-05-12T06:07:15.169Z,86
2023-05-12T06:08:21.698Z,86
2023-05-12T06:10:36.005Z,86
2023-05-12T06:11:43.014Z,86
2023-05-12T06:12:49.616Z,86
2023-05-12T06:13:56.754Z,86
2023-05-12T06:15:03.819Z,86
2023-05-12T06:16:10.961Z,86
2023-05-12T06:17:17.533Z,86
2023-05-12T06:18:25.178Z,86
2023-05-12T06:19:31.766Z,86
2023-05-12T06:20:38.857Z,86
2023-05-12T06:21:45.986Z,86
2023-05-12T06:22:53.032Z,86
2023-05-12T06:24:00.689Z,86
2023-05-12T06:25:06.769Z,86
2023-05-12T06:26:13.883Z,86
2023-05-12T06:27:20.936Z,86
2023-05-12T06:28:28.051Z,86
2023-05-12T06:29:35.173Z,86
2023-05-12T06:30:41.752Z,86
2023-05-12T06:31:48.940Z,86
2023-05-12T06:32:56.050Z,86
2023-05-12T06:34:03.053Z,87
2023-05-12T06:35:09.707Z,87
2023-05-12T06:36:16.803Z,87
2023-05-12T06:37:23.894Z,87
2023-05-12T06:38:30.932Z,87
2023-05-12T06:39:37.562Z,87
2023-05-12T06:41:51.752Z,87
2023-05-12T06:42:58.894Z,87
2023-05-12T06:44:05.474Z,87
2023-05-12T06:45:13.126Z,87
2023-05-12T06:46:19.738Z,87
2023-05-12T06:47:26.798Z,87
2023-05-12T06:48:33.871Z,87
2023-05-12T06:49:40.981Z,86
2023-05-12T06:50:48.106Z,86
2023-05-12T06:51:54.685Z,86
2023-05-12T06:53:01.742Z,86
2023-05-12T06:54:08.901Z,86
2023-05-12T06:55:16.046Z,86
2023-05-12T06:56:23.119Z,85
2023-05-12T06:57:29.760Z,85
2023-05-12T06:58:36.797Z,85
2023-05-12T06:59:43.885Z,85
2023-05-12T07:00:50.963Z,84
2023-05-12T07:01:57.725Z,84
2023-05-12T07:03:04.831Z,84
2023-05-12T07:04:11.826Z,83
2023-05-12T07:05:19.157Z,83
2023-05-12T07:06:25.503Z,83
2023-05-12T07:07:33.107Z,83
2023-05-12T07:08:40.704Z,82
2023-05-12T07:09:46.838Z,82
2023-05-12T07:10:53.910Z,82
2023-05-12T07:12:00.999Z,81
2023-05-12T07:13:08.198Z,81
2023-05-12T07:14:14.717Z,81
2023-05-12T07:16:29.058Z,81
2023-05-12T07:17:36.156Z,81
2023-05-12T07:18:43.153Z,80
2023-05-12T07:19:49.747Z,80
2023-05-12T07:20:56.870Z,80
2023-05-12T07:22:03.889Z,79
2023-05-12T07:23:11.012Z,79
2023-05-12T07:24:17.711Z,79
2023-05-12T07:25:25.008Z,79
2023-05-12T07:26:31.818Z,79
2023-05-12T07:27:38.937Z,78
2023-05-12T07:28:45.492Z,78
2023-05-12T07:29:53.103Z,77
2023-05-12T07:30:59.795Z,77
2023-05-12T07:32:06.869Z,78
2023-05-12T07:33:13.515Z,78
2023-05-12T07:34:21.053Z,77
2023-05-12T07:35:28.177Z,76
2023-05-12T07:43:16.904Z,75
2023-05-12T07:44:23.913Z,74
2023-05-12T07:45:31.017Z,74
2023-05-12T07:46:37.678Z,74
2023-05-12T07:47:44.831Z,74
2023-05-12T07:48:51.866Z,74
2023-05-12T07:49:59.003Z,74
2023-05-12T07:51:06.102Z,74
2023-05-12T07:52:12.637Z,74
2023-05-12T07:53:19.804Z,74
2023-05-12T07:54:26.919Z,73
2023-05-12T07:55:33.935Z,73
2023-05-12T07:56:41.047Z,73
2023-05-12T07:57:47.672Z,73
2023-05-12T07:58:54.745Z,72
2023-05-12T08:03:22.778Z,72
2023-05-12T08:04:29.325Z,72
2023-05-12T08:05:36.894Z,72
2023-05-12T08:06:43.964Z,72
2023-05-12T08:07:51.078Z,72
2023-05-12T08:08:57.702Z,71
2023-05-12T08:10:04.808Z,71
2023-05-12T08:11:11.878Z,71
2023-05-12T08:12:19.010Z,71
2023-05-12T08:13:25.766Z,70
2023-05-12T08:14:32.698Z,70
2023-05-12T08:15:39.804Z,70
2023-05-12T08:16:46.993Z,69
2023-05-12T08:17:53.485Z,69
2023-05-12T08:19:01.111Z,69
2023-05-12T08:20:07.711Z,69
2023-05-12T08:21:14.821Z,68
2023-05-12T08:22:21.893Z,68
2023-05-12T08:23:29.007Z,69
2023-05-12T08:24:36.089Z,69
2023-05-12T08:25:42.675Z,68
2023-05-12T08:29:03.991Z,68
2023-05-12T08:30:10.615Z,68
2023-05-12T08:30:11.083Z,68
2023-05-12T08:33:31.404Z,67
2023-05-12T08:41:21.157Z,67
2023-05-12T08:43:34.835Z,67
2023-05-12T08:45:48.527Z,65
2023-05-12T08:46:55.668Z,66
2023-05-12T08:51:24.014Z,66
2023-05-12T08:52:30.606Z,66
2023-05-12T08:53:37.741Z,65
2023-05-12T08:54:54.986Z,65
2023-05-12T08:54:55.015Z,65
2023-05-12T08:57:08.927Z,65
2023-05-12T08:57:09.181Z,65
2023-05-12T08:58:06.049Z,65
2023-05-12T08:59:12.726Z,65
2023-05-12T09:00:20.214Z,65
2023-05-12T09:01:26.571Z,65
2023-05-12T09:01:26.951Z,65
2023-05-12T09:02:48.264Z,65
2023-05-12T09:02:48.365Z,65
2023-05-12T09:03:40.639Z,65
2023-05-12T09:09:15.762Z,64
2023-05-12T09:21:32.834Z,63
2023-05-12T09:24:54.061Z,63
2023-05-12T09:32:44.554Z,62
2023-05-12T09:33:49.992Z,62
2023-05-12T09:34:57.565Z,62
2023-05-12T09:36:03.551Z,62
2023-05-12T09:40:32.586Z,61
2023-05-12T09:41:43.097Z,61
2023-05-12T09:44:59.954Z,62
2023-05-12T09:46:07.111Z,62
2023-05-12T09:47:14.201Z,61
2023-05-12T09:48:20.712Z,61
2023-05-12T09:49:27.373Z,61
2023-05-12T09:49:27.780Z,61
2023-05-12T09:52:48.641Z,61
2023-05-12T09:53:55.722Z,61
2023-05-12T09:55:02.790Z,61
2023-05-12T09:56:09.940Z,61
2023-05-12T09:57:17.037Z,61
2023-05-12T09:58:24.110Z,61
2023-05-12T09:59:30.741Z,60
2023-05-12T10:00:52.439Z,60
2023-05-12T10:01:44.974Z,60
2023-05-12T10:02:52.025Z,60
2023-05-12T10:03:58.658Z,60
2023-05-12T10:05:05.836Z,60
2023-05-12T10:06:12.846Z,60
2023-05-12T10:07:19.938Z,60
2023-05-12T10:08:27.102Z,60
2023-05-12T10:09:33.068Z,60
2023-05-12T10:09:33.650Z,60
2023-05-12T10:11:53.930Z,60
2023-05-12T10:14:02.010Z,60
2023-05-12T10:15:08.689Z,60
2023-05-12T10:16:15.816Z,60
2023-05-12T10:17:22.914Z,60
2023-05-12T10:18:29.948Z,60
2023-05-12T10:19:37.124Z,60
2023-05-12T10:20:43.606Z,59
2023-05-12T10:21:50.784Z,59
2023-05-12T10:22:57.844Z,59
2023-05-12T10:24:04.980Z,59
2023-05-12T10:25:12.048Z,59
2023-05-12T10:26:18.679Z,59
2023-05-12T10:27:25.760Z,59
2023-05-12T10:28:32.823Z,59
2023-05-12T10:29:39.980Z,59
2023-05-12T10:30:47.080Z,59
2023-05-12T10:31:53.673Z,59
2023-05-12T10:33:00.787Z,59
2023-05-12T10:35:14.987Z,59
2023-05-12T10:36:21.544Z,59
2023-05-12T10:37:28.941Z,59
2023-05-12T10:38:36.333Z,59
2023-05-12T10:39:42.880Z,58
2023-05-12T10:40:50.016Z,58
2023-05-12T10:41:57.113Z,58
2023-05-12T10:43:03.701Z,59
2023-05-12T10:44:10.773Z,59
2023-05-12T10:45:18.172Z,59
2023-05-12T10:46:25.060Z,59
2023-05-12T10:47:32.109Z,59
2023-05-12T10:48:40.684Z,59
2023-05-12T10:49:45.788Z,59
2023-05-12T10:50:52.894Z,59
2023-05-12T10:51:59.991Z,59
2023-05-12T10:53:08.094Z,59
2023-05-12T10:56:28.583Z,58
2023-05-12T10:57:35.167Z,58
2023-05-12T10:58:42.635Z,58
2023-05-12T10:59:48.960Z,58
2023-05-12T11:00:56.271Z,59
2023-05-12T11:02:03.944Z,59
2023-05-12T11:03:11.373Z,59
2023-05-12T11:04:16.946Z,60
2023-05-12T11:05:24.326Z,60
2023-05-12T11:06:31.188Z,61
2023-05-12T11:07:38.113Z,61
2023-05-12T11:08:46.012Z,61
2023-05-12T11:09:58.486Z,62
2023-05-12T11:10:59.119Z,62
2023-05-12T11:12:06.766Z,62
2023-05-12T11:13:12.871Z,62
2023-05-12T11:14:20.023Z,62
2023-05-12T11:15:26.610Z,62
2023-05-12T11:16:33.751Z,63
2023-05-12T11:17:40.921Z,63
2023-05-12T11:18:48.037Z,63
2023-05-12T11:19:55.044Z,64
2023-05-12T11:21:01.709Z,64
2023-05-12T11:22:08.730Z,63
2023-05-12T11:23:15.864Z,63
2023-05-12T11:24:22.914Z,64
2023-05-12T11:25:30.165Z,64
2023-05-12T11:26:36.645Z,64
2023-05-12T11:27:43.688Z,64
2023-05-12T11:28:50.818Z,64
2023-05-12T11:29:57.933Z,64
2023-05-12T11:31:05.085Z,64
2023-05-12T11:32:11.730Z,64
2023-05-12T11:33:18.772Z,64
2023-05-12T11:34:25.866Z,64
2023-05-12T11:36:39.559Z,64
2023-05-12T11:37:46.671Z,64
2023-05-12T11:38:53.742Z,64
2023-05-12T11:40:00.843Z,64
2023-05-12T11:41:07.972Z,64
2023-05-12T11:42:17.713Z,64
2023-05-12T11:43:21.608Z,64
2023-05-12T11:44:28.773Z,64
2023-05-12T11:45:35.932Z,65
2023-05-12T11:46:42.937Z,65
2023-05-12T11:47:49.689Z,65
2023-05-12T11:48:56.697Z,65
2023-05-12T11:50:03.738Z,65
2023-05-12T11:51:10.841Z,65
2023-05-12T11:52:17.976Z,65
2023-05-12T11:53:25.550Z,65
2023-05-12T11:54:31.681Z,65
2023-05-12T11:55:38.801Z,65
2023-05-12T11:56:45.986Z,65
2023-05-12T11:57:52.959Z,65
2023-05-12T11:58:59.578Z,65
2023-05-12T12:00:06.742Z,65
2023-05-12T12:01:13.763Z,65
2023-05-12T12:03:28.046Z,65
2023-05-12T12:04:34.750Z,65
2023-05-12T12:05:41.653Z,65
2023-05-12T12:06:48.796Z,65
2023-05-12T12:07:55.895Z,66
2023-05-12T12:09:02.956Z,66
2023-05-12T12:10:09.609Z,66
2023-05-12T12:11:16.725Z,66
2023-05-12T12:12:23.783Z,66
2023-05-12T12:13:30.888Z,66
2023-05-12T12:14:38.012Z,66
2023-05-12T12:15:44.930Z,66
2023-05-12T12:17:58.872Z,66
2023-05-12T12:19:06.073Z,66
2023-05-12T12:20:13.042Z,66
2023-05-12T12:21:19.615Z,67
2023-05-12T12:22:26.693Z,66
2023-05-12T12:23:47.403Z,67
2023-05-12T12:24:40.901Z,67
2023-05-12T12:25:48.032Z,66
2023-05-12T12:26:54.626Z,67
2023-05-12T12:28:01.707Z,67
2023-05-12T12:29:08.878Z,67
2023-05-12T12:30:15.954Z,67
2023-05-12T12:31:23.039Z,67
2023-05-12T12:32:29.722Z,67
2023-05-12T12:33:36.737Z,67
2023-05-12T12:34:43.836Z,67
2023-05-12T12:35:50.911Z,67
2023-05-12T12:36:58.050Z,67
2023-05-12T12:38:04.636Z,67
2023-05-12T12:39:11.736Z,67
2023-05-12T12:40:18.889Z,67
2023-05-12T12:41:25.987Z,67
2023-05-12T12:42:33.023Z,67
2023-05-12T12:43:39.641Z,67
2023-05-12T12:44:46.737Z,67
2023-05-12T12:45:54.388Z,67
2023-05-12T12:47:00.955Z,67
2023-05-12T12:48:07.590Z,67
2023-05-12T12:49:14.610Z,67
2023-05-12T12:50:21.717Z,67
2023-05-12T12:51:38.473Z,67
2023-05-12T12:52:35.995Z,67
2023-05-12T12:53:43.111Z,67
2023-05-12T12:54:49.682Z,67
2023-05-12T12:55:56.783Z,68
2023-05-12T12:57:03.849Z,68
2023-05-12T12:59:17.669Z,68
2023-05-12T13:00:24.667Z,68
2023-05-12T13:01:31.794Z,68
2023-05-12T13:02:39.042Z,68
2023-05-12T13:03:45.968Z,68
2023-05-12T13:04:52.569Z,68
2023-05-12T13:05:59.720Z,68
2023-05-12T13:07:06.810Z,68
2023-05-12T13:08:13.911Z,67
2023-05-12T13:09:20.940Z,68
2023-05-12T13:10:27.587Z,68
2023-05-12T13:11:34.660Z,68
2023-05-12T13:12:41.734Z,67
2023-05-12T13:13:48.917Z,67
2023-05-12T13:14:55.966Z,67
2023-05-12T13:16:02.554Z,67
2023-05-12T13:17:09.930Z,67
2023-05-12T13:18:16.774Z,67
2023-05-12T13:19:23.875Z,67
2023-05-12T13:20:30.949Z,68
2023-05-12T13:21:37.589Z,68
2023-05-12T13:22:44.682Z,67
2023-05-12T13:23:51.781Z,67
2023-05-12T13:24:58.889Z,67
2023-05-12T13:26:06.025Z,67
2023-05-12T13:27:12.535Z,67
2023-05-12T13:28:19.678Z,67
2023-05-12T13:29:26.837Z,67
2023-05-12T13:31:41.043Z,67
2023-05-12T13:32:47.658Z,67
2023-05-12T13:33:54.696Z,67
2023-05-12T13:35:01.839Z,67
2023-05-12T13:36:08.943Z,67
2023-05-12T13:37:16.002Z,67
2023-05-12T13:38:22.618Z,67
2023-05-12T13:40:36.796Z,67
2023-05-12T13:41:44.053Z,67
2023-05-12T13:42:51.134Z,67
2023-05-12T13:43:57.601Z,67
2023-05-12T13:45:04.753Z,67
2023-05-12T13:46:11.820Z,67
2023-05-12T13:47:18.936Z,67
2023-05-12T13:48:26.041Z,67
2023-05-12T13:49:33.121Z,67
2023-05-12T13:50:39.746Z,67
2023-05-12T13:51:46.823Z,67
2023-05-12T13:52:54.057Z,67
2023-05-12T13:54:00.993Z,67
2023-05-12T13:55:07.605Z,67
2023-05-12T13:56:14.698Z,67
2023-05-12T13:57:21.866Z,67
2023-05-12T13:58:28.947Z,67
2023-05-12T13:59:36.092Z,67
2023-05-12T14:00:42.622Z,67
2023-05-12T14:01:49.762Z,66
2023-05-12T14:02:56.980Z,66
2023-05-12T14:04:03.935Z,66
2023-05-12T14:05:10.633Z,66
2023-05-12T14:06:17.668Z,66
2023-05-12T14:07:24.733Z,66
2023-05-12T14:08:31.927Z,66
2023-05-12T14:09:38.993Z,66
2023-05-12T14:10:45.544Z,66
2023-05-12T14:11:52.604Z,66
2023-05-12T14:12:59.749Z,67
2023-05-12T14:14:06.846Z,67
2023-05-12T14:15:26.567Z,67
2023-05-12T14:16:20.593Z,67
2023-05-12T14:17:27.679Z,67
2023-05-12T14:18:34.760Z,67
2023-05-12T14:19:41.836Z,67
2023-05-12T14:21:55.590Z,66
2023-05-12T14:23:02.631Z,66
2023-05-12T14:24:09.769Z,66
2023-05-12T14:25:16.885Z,66
2023-05-12T14:26:23.925Z,67
2023-05-12T14:27:30.540Z,66
2023-05-12T14:28:40.786Z,66
2023-05-12T14:29:44.871Z,66
2023-05-12T14:30:51.829Z,67
2023-05-12T14:31:59.131Z,67
2023-05-12T14:33:05.629Z,66
2023-05-12T14:34:12.656Z,67
2023-05-12T14:35:19.949Z,66
2023-05-12T14:36:26.911Z,66
2023-05-12T14:37:33.942Z,66
2023-05-12T14:38:40.746Z,66
2023-05-12T14:39:47.861Z,66
2023-05-12T14:40:54.942Z,65
2023-05-12T14:42:01.833Z,65
2023-05-12T14:43:08.990Z,65
2023-05-12T14:44:15.567Z,65
2023-05-12T14:45:23.004Z,65
2023-05-12T14:46:29.820Z,65
2023-05-12T14:47:37.025Z,65
2023-05-12T14:48:43.970Z,65
2023-05-12T14:49:50.540Z,66
2023-05-12T14:50:57.706Z,66
2023-05-12T14:52:04.826Z,66
2023-05-12T14:53:12.402Z,66
2023-05-12T14:54:25.220Z,66
2023-05-12T14:55:25.563Z,66
2023-05-12T14:56:32.669Z,66
2023-05-12T14:57:39.865Z,65
2023-05-12T14:59:53.465Z,65
2023-05-12T15:01:00.664Z,65
2023-05-12T15:03:14.915Z,65
2023-05-12T15:04:21.882Z,65
2023-05-12T15:05:41.172Z,65
2023-05-12T15:06:35.744Z,65
2023-05-12T15:07:42.671Z,65
2023-05-12T15:08:49.837Z,65
2023-05-12T15:09:56.928Z,65
2023-05-12T15:11:03.479Z,65
2023-05-12T15:12:10.577Z,65
2023-05-12T15:13:17.740Z,65
2023-05-12T15:15:31.906Z,65
2023-05-12T15:16:38.580Z,65
2023-05-12T15:17:45.728Z,65
2023-05-12T15:18:52.763Z,65
2023-05-12T15:19:59.938Z,65
2023-05-12T15:21:07.007Z,65
2023-05-12T15:22:13.510Z,64
2023-05-12T15:23:20.623Z,64
2023-05-12T15:24:27.772Z,64
2023-05-12T15:25:34.862Z,64
2023-05-12T15:26:41.917Z,64
2023-05-12T15:27:48.574Z,64
2023-05-12T15:28:55.632Z,64
2023-05-12T15:30:02.791Z,64
2023-05-12T15:31:09.931Z,64
2023-05-12T15:32:16.955Z,64
2023-05-12T15:33:23.506Z,64
2023-05-12T15:34:30.624Z,64
2023-05-12T15:35:37.764Z,64
2023-05-12T15:36:44.858Z,64
2023-05-12T15:37:51.937Z,64
2023-05-12T15:38:58.564Z,64
2023-05-12T15:40:05.650Z,64
2023-05-12T15:41:12.758Z,64
2023-05-12T15:42:26.190Z,64
2023-05-12T15:44:33.546Z,64
2023-05-12T15:45:40.713Z,64
2023-05-12T15:46:47.889Z,64
2023-05-12T15:47:54.968Z,64
2023-05-12T15:49:01.421Z,64
2023-05-12T15:50:08.559Z,64
2023-05-12T15:51:15.653Z,64
2023-05-12T15:52:22.749Z,64
2023-05-12T15:53:29.870Z,64
2023-05-12T15:54:36.634Z,64
2023-05-12T15:55:43.558Z,64
2023-05-12T15:56:51.182Z,64
2023-05-12T15:57:57.787Z,64
2023-05-12T15:59:04.930Z,64
2023-05-12T16:00:12.017Z,64
2023-05-12T16:01:18.613Z,64
2023-05-12T16:02:25.751Z,64
2023-05-12T16:03:32.821Z,64
2023-05-12T16:04:39.900Z,64
2023-05-12T16:05:46.493Z,64
2023-05-12T16:06:53.577Z,64
2023-05-12T16:08:00.696Z,64
2023-05-12T16:09:07.840Z,64
2023-05-12T16:10:14.903Z,64
2023-05-12T16:11:21.519Z,64
2023-05-12T16:12:28.611Z,64
2023-05-12T16:13:35.703Z,64
2023-05-12T16:14:42.753Z,64
2023-05-12T16:15:50.088Z,64
2023-05-12T16:16:56.623Z,64
2023-05-12T16:18:03.712Z,64
2023-05-12T16:19:10.761Z,64
2023-05-12T16:20:17.760Z,64
2023-05-12T16:21:24.926Z,64
2023-05-12T16:22:31.682Z,64
2023-05-12T16:23:38.599Z,64
2023-05-12T16:25:52.770Z,64
2023-05-12T16:28:06.534Z,65
2023-05-12T16:29:13.614Z,65
2023-05-12T16:30:20.726Z,65
2023-05-12T16:31:27.892Z,65
2023-05-12T16:32:34.453Z,65
2023-05-12T16:32:35.007Z,65
2023-05-12T16:33:41.478Z,65
2023-05-12T16:34:48.741Z,65
2023-05-12T16:35:55.212Z,65
2023-05-12T16:35:55.679Z,65
2023-05-12T16:37:02.972Z,65
2023-05-12T16:38:09.918Z,65
2023-05-12T16:39:16.518Z,65
2023-05-12T16:40:23.108Z,65
2023-05-12T16:40:23.595Z,65
2023-05-12T16:41:30.684Z,65
2023-05-12T16:42:37.318Z,65
2023-05-12T16:43:44.955Z,65
2023-05-12T16:44:51.479Z,65
2023-05-12T16:44:51.557Z,65
2023-05-12T16:45:58.670Z,65
2023-05-12T16:47:05.764Z,65
2023-05-12T16:48:12.278Z,65
2023-05-12T16:48:12.817Z,65
2023-05-12T16:49:20.006Z,65
2023-05-12T16:50:26.542Z,65
2023-05-12T16:51:33.636Z,65
2023-05-12T16:52:40.225Z,65
2023-05-12T16:52:40.711Z,65
2023-05-12T16:53:47.329Z,65
2023-05-12T16:53:47.834Z,65
2023-05-12T16:54:54.413Z,65
2023-05-12T16:56:01.562Z,65
2023-05-12T16:57:08.651Z,65
2023-05-12T16:58:15.733Z,65
2023-05-12T16:59:22.852Z,65
2023-05-12T17:00:29.956Z,65
2023-05-12T17:01:36.602Z,65
2023-05-12T17:02:43.753Z,65
2023-05-12T17:03:50.832Z,65
2023-05-12T17:04:57.890Z,65
2023-05-12T17:07:11.636Z,66
2023-05-12T17:08:19.059Z,66
2023-05-12T17:09:25.799Z,66
2023-05-12T17:10:32.866Z,66
2023-05-12T17:11:39.984Z,66
2023-05-12T17:12:46.570Z,66
2023-05-12T17:13:53.683Z,66
2023-05-12T17:15:22.140Z,66
2023-05-12T17:16:07.998Z,66
2023-05-12T17:17:15.025Z,66
2023-05-12T17:18:21.632Z,66
2023-05-12T17:19:28.747Z,66
2023-05-12T17:20:35.830Z,66
2023-05-12T17:21:42.951Z,66
2023-05-12T17:22:49.473Z,66
2023-05-12T17:23:56.627Z,66
2023-05-12T17:25:03.704Z,66
2023-05-12T17:26:10.759Z,66
2023-05-12T17:27:17.881Z,66
2023-05-12T17:28:24.470Z,66
2023-05-12T17:29:31.565Z,66
2023-05-12T17:30:38.735Z,66
2023-05-12T17:31:45.882Z,66
2023-05-12T17:32:52.943Z,66
2023-05-12T17:33:59.492Z,66
2023-05-12T17:35:06.668Z,67
2023-05-12T17:36:13.685Z,67
2023-05-12T17:37:20.788Z,67
2023-05-12T17:38:27.934Z,67
2023-05-12T17:39:34.467Z,67
2023-05-12T17:40:41.587Z,67
2023-05-12T17:41:48.695Z,67
2023-05-12T17:42:55.793Z,67
2023-05-12T17:45:09.503Z,67
2023-05-12T17:46:16.642Z,67
2023-05-12T17:48:30.764Z,68
2023-05-12T17:49:37.936Z,68
2023-05-12T17:50:44.480Z,68
2023-05-12T17:52:58.736Z,68
2023-05-12T17:54:05.835Z,68
2023-05-12T17:57:26.628Z,68
2023-05-12T17:58:33.737Z,68
2023-05-12T17:59:40.812Z,68
2023-05-12T18:01:54.584Z,68
2023-05-12T18:01:54.598Z,68
2023-05-12T18:03:01.833Z,69
2023-05-12T18:10:50.328Z,69
2023-05-12T18:10:50.800Z,69
2023-05-12T18:14:11.123Z,69
2023-05-12T18:15:18.880Z,69
2023-05-12T18:16:28.895Z,69
2023-05-12T18:17:32.594Z,69
2023-05-12T18:18:41.126Z,69
2023-05-12T18:19:46.655Z,69
2023-05-12T18:20:53.736Z,69
2023-05-12T18:22:00.335Z,69
2023-05-12T18:23:07.458Z,69
2023-05-12T18:24:14.540Z,69